createdAt,value
2018-06-17T00:01:17.920Z,3.60
2018-06-17T00:03:22.393Z,3.30
2018-06-17T00:05:26.883Z,5.13
2018-06-17T00:07:31.375Z,4.10
2018-06-17T00:09:35.847Z,5.60
2018-06-17T00:11:40.326Z,5.23
2018-06-17T00:13:44.761Z,3.10
2018-06-17T00:15:49.228Z,3.55
2018-06-17T00:17:53.692Z,6.65
2018-06-17T00:19:58.151Z,3.30
2018-06-17T00:22:03.372Z,3.45
2018-06-17T00:24:08.010Z,3.17
2018-06-17T00:26:12.412Z,3.10
2018-06-17T00:28:17.490Z,4.03
2018-06-17T00:30:21.974Z,3.80
2018-06-17T00:32:26.617Z,4.45
2018-06-17T00:34:31.108Z,3.53
2018-06-17T00:36:35.608Z,3.67
2018-06-17T00:38:40.062Z,3.93
2018-06-17T00:40:44.572Z,5.37
2018-06-17T00:42:49.054Z,3.72
2018-06-17T00:44:53.503Z,4.03
2018-06-17T00:46:57.966Z,6.07
2018-06-17T00:49:02.437Z,4.45
2018-06-17T00:51:06.956Z,3.75
2018-06-17T00:53:11.320Z,4.22
2018-06-17T00:55:15.756Z,4.60
2018-06-17T00:57:37.719Z,6.23
2018-06-17T00:59:42.260Z,6.17
2018-06-17T01:01:52.112Z,7.05
2018-06-17T01:03:59.704Z,5.97
2018-06-17T01:06:05.541Z,5.87
2018-06-17T01:08:12.058Z,6.87
2018-06-17T01:10:21.364Z,4.73
2018-06-17T01:12:28.210Z,5.72
2018-06-17T01:14:35.908Z,7.90
2018-06-17T01:16:43.475Z,8.70
2018-06-17T01:18:51.257Z,6.50
2018-06-17T01:20:58.160Z,7.35
2018-06-17T01:23:05.298Z,6.50
2018-06-17T01:25:12.891Z,8.97
2018-06-17T01:27:20.778Z,6.87
2018-06-17T01:29:28.588Z,7.83
2018-06-17T01:31:35.801Z,8.27
2018-06-17T01:33:43.068Z,7.33
2018-06-17T01:35:49.186Z,8.00
2018-06-17T01:37:57.528Z,9.30
2018-06-17T01:40:04.175Z,7.27
2018-06-17T01:42:11.502Z,7.97
2018-06-17T01:44:19.527Z,9.40
2018-06-17T01:46:26.956Z,6.53
2018-06-17T01:48:35.993Z,6.77
2018-06-17T01:50:42.766Z,7.20
2018-06-17T01:52:51.033Z,8.17
2018-06-17T01:54:55.778Z,8.73
2018-06-17T01:57:02.168Z,8.87
2018-06-17T01:59:10.677Z,7.30
2018-06-17T02:01:15.248Z,11.40
2018-06-17T02:03:27.061Z,9.80
2018-06-17T02:05:37.939Z,8.43
2018-06-17T02:07:48.813Z,9.30
2018-06-17T02:10:00.948Z,7.20
2018-06-17T02:12:11.886Z,7.03
2018-06-17T02:14:24.568Z,6.95
2018-06-17T02:16:32.081Z,7.83
2018-06-17T02:18:37.369Z,6.90
2018-06-17T02:20:41.528Z,9.33
2018-06-17T02:22:46.110Z,8.33
2018-06-17T02:24:50.621Z,6.37
2018-06-17T02:26:55.027Z,7.47
2018-06-17T02:28:59.437Z,6.90
2018-06-17T02:31:03.903Z,8.10
2018-06-17T02:33:08.353Z,7.33
2018-06-17T02:35:12.823Z,7.57
2018-06-17T02:37:18.078Z,7.60
2018-06-17T02:39:22.485Z,6.27
2018-06-17T02:41:26.946Z,9.60
2018-06-17T02:43:31.341Z,6.07
2018-06-17T02:46:39.830Z,7.40
2018-06-17T02:48:49.492Z,6.53
2018-06-17T02:50:59.164Z,6.20
2018-06-17T02:53:09.003Z,5.75
2018-06-17T02:55:13.462Z,6.43
2018-06-17T02:57:19.821Z,5.83
2018-06-17T02:59:24.242Z,6.40
2018-06-17T03:01:28.724Z,5.62
2018-06-17T03:03:33.146Z,6.28
2018-06-17T03:05:38.685Z,5.57
2018-06-17T03:07:43.107Z,5.80
2018-06-17T03:09:47.531Z,6.25
2018-06-17T03:11:51.938Z,5.30
2018-06-17T03:13:56.362Z,5.80
2018-06-17T03:16:00.771Z,9.67
2018-06-17T03:18:04.948Z,8.67
2018-06-17T03:20:09.366Z,6.23
2018-06-17T03:22:14.640Z,5.97
2018-06-17T03:24:23.218Z,8.47
2018-06-17T03:26:34.027Z,5.47
2018-06-17T03:28:43.929Z,5.23
2018-06-17T03:30:53.640Z,5.87
2018-06-17T03:33:04.740Z,6.53
2018-06-17T03:35:14.514Z,6.60
2018-06-17T03:37:19.673Z,7.13
2018-06-17T03:39:24.071Z,5.40
2018-06-17T03:41:28.581Z,6.35
2018-06-17T03:43:32.969Z,6.35
2018-06-17T03:45:37.428Z,5.83
2018-06-17T03:47:43.039Z,5.57
2018-06-17T03:49:47.611Z,6.07
2018-06-17T03:51:52.268Z,6.53
2018-06-17T03:53:56.698Z,7.95
2018-06-17T03:56:01.320Z,5.77
2018-06-17T03:58:05.813Z,6.70
2018-06-17T04:00:09.968Z,6.53
2018-06-17T04:02:17.363Z,5.97
2018-06-17T04:04:25.217Z,6.13
2018-06-17T04:06:33.393Z,6.93
2018-06-17T04:08:42.795Z,7.43
2018-06-17T04:10:49.567Z,6.25
2018-06-17T04:12:55.901Z,6.13
2018-06-17T04:15:04.973Z,7.43
2018-06-17T04:17:15.362Z,7.45
2018-06-17T04:19:22.845Z,4.80
2018-06-17T04:21:27.330Z,6.33
2018-06-17T04:23:31.852Z,5.55
2018-06-17T04:25:37.324Z,5.40
2018-06-17T04:27:44.171Z,5.73
2018-06-17T04:29:48.621Z,6.05
2018-06-17T04:31:53.127Z,6.77
2018-06-17T04:33:57.545Z,7.27
2018-06-17T04:36:02.360Z,5.07
2018-06-17T04:38:06.838Z,5.47
2018-06-17T04:40:11.332Z,7.67
2018-06-17T04:42:15.774Z,6.30
2018-06-17T04:44:20.396Z,5.20
2018-06-17T04:46:24.882Z,6.70
2018-06-17T04:48:29.341Z,7.25
2018-06-17T04:50:33.752Z,5.97
2018-06-17T04:52:38.159Z,6.07
2018-06-17T04:54:42.571Z,6.37
2018-06-17T04:56:47.722Z,4.67
2018-06-17T04:58:52.211Z,6.60
2018-06-17T05:00:56.705Z,4.08
2018-06-17T05:03:01.098Z,5.33
2018-06-17T05:05:06.522Z,6.93
2018-06-17T05:07:11.271Z,6.20
2018-06-17T05:09:15.778Z,4.50
2018-06-17T05:11:20.186Z,4.50
2018-06-17T05:13:24.615Z,5.07
2018-06-17T05:15:29.107Z,9.03
2018-06-17T05:17:33.544Z,5.58
2018-06-17T05:19:37.996Z,5.00
2018-06-17T05:21:42.493Z,5.87
2018-06-17T05:23:46.919Z,6.83
2018-06-17T05:25:51.368Z,9.23
2018-06-17T05:27:55.821Z,7.47
2018-06-17T05:30:00.233Z,10.30
2018-06-17T05:32:04.755Z,8.80
2018-06-17T05:34:09.268Z,8.28
2018-06-17T05:36:13.810Z,6.72
2018-06-17T05:38:18.238Z,4.83
2018-06-17T05:40:23.143Z,4.87
2018-06-17T05:42:27.646Z,7.28
2018-06-17T05:44:32.110Z,5.72
2018-06-17T05:46:37.047Z,3.92
2018-06-17T05:48:43.193Z,5.27
2018-06-17T05:50:47.739Z,4.30
2018-06-17T05:52:52.266Z,4.78
2018-06-17T05:54:56.687Z,7.00
2018-06-17T05:57:01.227Z,4.00
2018-06-17T05:59:06.140Z,7.75
2018-06-17T06:01:10.735Z,6.37
2018-06-17T06:03:15.896Z,6.03
2018-06-17T06:05:20.354Z,4.90
2018-06-17T06:07:24.791Z,4.57
2018-06-17T06:09:29.337Z,3.85
2018-06-17T06:11:33.831Z,8.78
2018-06-17T06:13:38.344Z,3.52
2018-06-17T06:15:42.487Z,4.43
2018-06-17T06:17:47.236Z,5.27
2018-06-17T06:19:51.661Z,4.87
2018-06-17T06:21:56.197Z,3.87
2018-06-17T06:24:00.661Z,4.70
2018-06-17T06:26:05.095Z,3.43
2018-06-17T06:28:09.596Z,4.07
2018-06-17T06:30:14.030Z,2.70
2018-06-17T06:32:18.551Z,3.37
2018-06-17T06:34:22.979Z,5.47
2018-06-17T06:36:28.309Z,3.45
2018-06-17T06:38:32.843Z,5.90
2018-06-17T06:40:37.939Z,5.13
2018-06-17T06:42:42.425Z,2.17
2018-06-17T06:44:46.955Z,6.72
2018-06-17T06:46:51.440Z,4.07
2018-06-17T06:48:55.891Z,2.90
2018-06-17T06:51:00.904Z,4.50
2018-06-17T06:53:05.520Z,4.80
2018-06-17T06:55:11.729Z,2.17
2018-06-17T06:57:16.190Z,4.67
2018-06-17T06:59:20.660Z,2.87
2018-06-17T07:01:42.050Z,4.67
2018-06-17T07:04:03.680Z,3.90
2018-06-17T07:06:25.066Z,2.90
2018-06-17T07:08:46.439Z,3.72
2018-06-17T07:10:50.894Z,3.77
2018-06-17T07:12:55.453Z,2.17
2018-06-17T07:14:59.901Z,1.70
2018-06-17T07:17:21.447Z,3.07
2018-06-17T07:19:26.037Z,3.63
2018-06-17T07:21:30.495Z,3.60
2018-06-17T07:23:34.984Z,2.97
2018-06-17T07:26:57.552Z,1.95
2018-06-17T07:29:20.710Z,3.93
2018-06-17T07:31:25.183Z,4.73
2018-06-17T07:33:29.615Z,3.50
2018-06-17T07:35:34.084Z,3.47
2018-06-17T07:37:38.541Z,2.70
2018-06-17T07:40:27.203Z,3.93
2018-06-17T07:42:31.332Z,4.40
2018-06-17T07:44:35.757Z,4.37
2018-06-17T07:46:40.354Z,1.85
2018-06-17T07:49:59.617Z,5.70
2018-06-17T07:52:21.735Z,4.83
2018-06-17T07:54:26.253Z,4.43
2018-06-17T07:56:31.139Z,3.30
2018-06-17T07:58:41.413Z,6.08
2018-06-17T08:00:49.730Z,3.23
2018-06-17T08:02:57.606Z,4.23
2018-06-17T08:05:02.925Z,6.63
2018-06-17T08:07:15.537Z,3.47
2018-06-17T08:09:27.100Z,3.45
2018-06-17T08:11:31.568Z,3.87
2018-06-17T08:13:35.980Z,5.37
2018-06-17T08:15:40.444Z,5.00
2018-06-17T08:17:44.903Z,4.77
2018-06-17T08:19:49.354Z,5.95
2018-06-17T08:21:54.331Z,3.62
2018-06-17T08:23:59.330Z,4.37
2018-06-17T08:26:03.865Z,3.77
2018-06-17T08:28:08.397Z,7.60
2018-06-17T08:30:12.833Z,3.60
2018-06-17T08:32:17.307Z,3.98
2018-06-17T08:34:21.938Z,6.57
2018-06-17T08:36:27.485Z,3.33
2018-06-17T08:38:32.015Z,5.10
2018-06-17T08:40:37.055Z,3.90
2018-06-17T08:42:41.552Z,8.58
2018-06-17T08:44:46.007Z,2.90
2018-06-17T08:46:50.994Z,5.50
2018-06-17T08:48:55.407Z,4.35
2018-06-17T08:50:59.836Z,5.40
2018-06-17T08:53:04.247Z,3.07
2018-06-17T08:55:09.626Z,3.60
2018-06-17T08:57:14.061Z,5.17
2018-06-17T08:59:18.606Z,4.57
2018-06-17T09:01:23.411Z,5.08
2018-06-17T09:03:28.268Z,6.20
2018-06-17T09:05:32.771Z,4.93
2018-06-17T09:07:37.215Z,2.72
2018-06-17T09:09:42.395Z,5.90
2018-06-17T09:11:48.338Z,4.57
2018-06-17T09:13:54.442Z,5.47
2018-06-17T09:15:58.970Z,5.70
2018-06-17T09:18:05.274Z,3.58
2018-06-17T09:20:09.864Z,5.17
2018-06-17T09:22:15.194Z,4.60
2018-06-17T09:24:20.112Z,5.67
2018-06-17T09:26:26.995Z,4.20
2018-06-17T09:28:32.681Z,4.50
2018-06-17T09:30:44.849Z,4.50
2018-06-17T09:32:49.960Z,6.37
2018-06-17T09:34:54.762Z,4.60
2018-06-17T09:36:59.535Z,2.55
2018-06-17T09:39:05.203Z,7.65
2018-06-17T09:41:09.457Z,4.43
2018-06-17T09:43:14.309Z,3.63
2018-06-17T09:45:18.895Z,2.97
2018-06-17T09:47:23.358Z,5.40
2018-06-17T09:49:28.748Z,5.70
2018-06-17T09:51:34.130Z,5.90
2018-06-17T09:53:39.058Z,3.15
2018-06-17T09:55:43.864Z,3.58
2018-06-17T09:57:49.911Z,3.67
2018-06-17T09:59:54.581Z,2.40
2018-06-17T10:02:00.435Z,2.65
2018-06-17T10:04:04.671Z,4.23
2018-06-17T10:06:09.574Z,5.27
2018-06-17T10:08:14.273Z,4.77
2018-06-17T10:10:53.494Z,2.95
2018-06-17T10:12:58.824Z,3.37
2018-06-17T10:15:03.425Z,3.17
2018-06-17T10:17:09.240Z,3.67
2018-06-17T10:19:13.880Z,6.30
2018-06-17T10:21:18.401Z,4.40
2018-06-17T10:23:31.569Z,2.60
2018-06-17T10:25:36.422Z,3.73
2018-06-17T10:27:41.194Z,4.27
2018-06-17T10:29:46.025Z,3.80
2018-06-17T10:31:51.197Z,4.20
2018-06-17T10:33:55.821Z,5.07
2018-06-17T10:36:01.454Z,3.17
2018-06-17T10:38:06.647Z,3.00
2018-06-17T10:40:11.162Z,4.00
2018-06-17T10:42:16.345Z,4.08
2018-06-17T10:44:21.046Z,3.30
2018-06-17T10:46:25.465Z,5.33
2018-06-17T10:48:30.926Z,3.07
2018-06-17T10:50:35.465Z,8.25
2018-06-17T10:52:41.326Z,3.70
2018-06-17T10:54:45.802Z,5.17
2018-06-17T10:56:50.267Z,2.77
2018-06-17T10:58:54.687Z,4.03
2018-06-17T11:00:58.911Z,2.43
2018-06-17T11:03:03.486Z,2.73
2018-06-17T11:05:09.170Z,2.25
2018-06-17T11:07:13.606Z,4.13
2018-06-17T11:09:18.068Z,4.25
2018-06-17T11:11:22.473Z,2.60
2018-06-17T11:13:26.982Z,4.60
2018-06-17T11:15:31.410Z,4.90
2018-06-17T11:17:35.955Z,2.47
2018-06-17T11:19:40.232Z,4.47
2018-06-17T11:21:44.718Z,2.70
2018-06-17T11:23:49.949Z,3.17
2018-06-17T11:25:54.423Z,3.50
2018-06-17T11:27:58.965Z,5.22
2018-06-17T11:30:03.135Z,3.50
2018-06-17T11:32:07.622Z,2.83
2018-06-17T11:34:12.044Z,4.33
2018-06-17T11:36:16.556Z,3.62
2018-06-17T11:38:21.029Z,3.00
2018-06-17T11:40:25.522Z,4.45
2018-06-17T11:42:30.573Z,2.10
2018-06-17T11:44:35.036Z,2.62
2018-06-17T11:46:39.495Z,4.93
2018-06-17T11:48:44.699Z,3.25
2018-06-17T11:50:49.131Z,3.93
2018-06-17T11:52:55.445Z,2.53
2018-06-17T11:55:04.333Z,2.92
2018-06-17T11:57:12.446Z,2.85
2018-06-17T11:59:22.636Z,3.85
2018-06-17T12:01:38.938Z,2.77
2018-06-17T12:03:46.591Z,4.65
2018-06-17T12:05:58.454Z,2.15
2018-06-17T12:08:07.838Z,2.30
2018-06-17T12:10:12.767Z,5.03
2018-06-17T12:12:18.642Z,3.47
2018-06-17T12:14:23.123Z,2.83
2018-06-17T12:16:30.900Z,2.50
2018-06-17T12:18:43.722Z,2.30
2018-06-17T12:20:50.984Z,2.63
2018-06-17T12:22:58.551Z,3.37
2018-06-17T12:25:05.499Z,7.53
2018-06-17T12:27:10.229Z,1.97
2018-06-17T12:29:15.291Z,3.37
2018-06-17T12:31:19.707Z,2.93
2018-06-17T12:33:24.627Z,3.43
2018-06-17T12:35:29.881Z,2.93
2018-06-17T12:37:34.626Z,3.90
2018-06-17T12:39:39.534Z,3.72
2018-06-17T12:41:45.418Z,2.37
2018-06-17T12:43:50.239Z,2.90
2018-06-17T12:45:54.725Z,3.60
2018-06-17T12:47:59.170Z,3.87
2018-06-17T12:50:04.274Z,3.73
2018-06-17T12:52:09.062Z,4.53
2018-06-17T12:54:13.531Z,4.23
2018-06-17T12:56:18.934Z,6.37
2018-06-17T12:58:24.569Z,3.60
2018-06-17T13:00:29.003Z,2.67
2018-06-17T13:02:33.806Z,1.30
2018-06-17T13:04:38.309Z,2.08
2018-06-17T13:06:43.364Z,5.03
2018-06-17T13:08:48.272Z,3.90
2018-06-17T13:10:52.927Z,3.60
2018-06-17T13:12:57.735Z,2.00
2018-06-17T13:15:02.965Z,3.40
2018-06-17T13:17:08.603Z,2.50
2018-06-17T13:19:13.295Z,2.83
2018-06-17T13:21:18.339Z,5.33
2018-06-17T13:23:23.303Z,3.57
2018-06-17T13:25:27.989Z,1.12
2018-06-17T13:27:33.014Z,2.67
2018-06-17T13:29:38.183Z,5.78
2018-06-17T13:31:43.050Z,3.10
2018-06-17T13:33:47.990Z,4.07
2018-06-17T13:35:52.510Z,3.43
2018-06-17T13:37:57.562Z,2.77
2018-06-17T13:40:02.103Z,3.00
2018-06-17T13:42:06.954Z,3.40
2018-06-17T13:44:12.619Z,3.43
2018-06-17T13:46:17.970Z,4.97
2018-06-17T13:48:23.251Z,2.27
2018-06-17T13:50:27.821Z,5.15
2018-06-17T13:52:33.388Z,3.35
2018-06-17T13:54:37.843Z,6.77
2018-06-17T13:56:42.571Z,2.37
2018-06-17T13:58:47.506Z,1.47
2018-06-17T14:00:52.463Z,3.43
2018-06-17T14:02:58.362Z,3.20
2018-06-17T14:05:05.477Z,2.43
2018-06-17T14:07:10.263Z,4.33
2018-06-17T14:09:14.974Z,4.25
2018-06-17T14:11:20.226Z,1.70
2018-06-17T14:13:25.161Z,2.80
2018-06-17T14:15:29.889Z,3.60
2018-06-17T14:17:34.584Z,1.20
2018-06-17T14:19:39.107Z,1.87
2018-06-17T14:21:44.185Z,3.65
2018-06-17T14:23:48.717Z,2.30
2018-06-17T14:25:53.828Z,4.10
2018-06-17T14:27:58.383Z,2.97
2018-06-17T14:30:04.021Z,5.60
2018-06-17T14:32:10.075Z,2.87
2018-06-17T14:34:14.675Z,1.77
2018-06-17T14:36:19.071Z,2.03
2018-06-17T14:38:24.621Z,2.20
2018-06-17T14:40:29.161Z,3.87
2018-06-17T14:42:38.860Z,3.37
2018-06-17T14:44:49.470Z,5.87
2018-06-17T14:46:59.095Z,1.60
2018-06-17T14:49:09.917Z,2.37
2018-06-17T14:51:19.556Z,1.83
2018-06-17T14:53:24.847Z,2.33
2018-06-17T14:55:29.310Z,3.58
2018-06-17T14:57:37.953Z,2.53
2018-06-17T14:59:42.581Z,3.77
2018-06-17T15:01:46.822Z,2.80
2018-06-17T15:03:51.345Z,1.37
2018-06-17T15:05:55.767Z,2.27
2018-06-17T15:08:00.189Z,2.20
2018-06-17T15:10:05.144Z,1.87
2018-06-17T15:12:09.680Z,4.17
2018-06-17T15:14:14.716Z,2.05
2018-06-17T15:16:19.552Z,2.60
2018-06-17T15:18:25.125Z,3.27
2018-06-17T15:20:29.595Z,1.40
2018-06-17T15:22:34.111Z,1.07
2018-06-17T15:24:38.524Z,1.05
2018-06-17T15:26:42.973Z,1.65
2018-06-17T15:28:47.408Z,2.33
2018-06-17T15:30:51.878Z,1.47
2018-06-17T15:33:01.567Z,2.23
2018-06-17T15:35:11.349Z,2.67
2018-06-17T15:37:20.881Z,3.80
2018-06-17T15:39:30.602Z,3.27
2018-06-17T15:41:35.183Z,2.22
2018-06-17T15:43:39.670Z,3.75
2018-06-17T15:45:45.875Z,1.50
2018-06-17T15:47:50.291Z,3.53
2018-06-17T15:49:54.737Z,2.12
2018-06-17T15:51:59.161Z,2.13
2018-06-17T15:54:03.573Z,1.37
2018-06-17T15:56:08.006Z,2.83
2018-06-17T15:58:12.494Z,3.47
2018-06-17T16:00:17.746Z,2.33
2018-06-17T16:02:22.811Z,2.20
2018-06-17T16:04:27.222Z,2.50
2018-06-17T16:06:31.680Z,2.85
2018-06-17T16:08:36.138Z,3.20
2018-06-17T16:10:40.689Z,1.90
2018-06-17T16:12:50.789Z,1.17
2018-06-17T16:15:00.429Z,2.83
2018-06-17T16:17:10.947Z,2.30
2018-06-17T16:19:20.790Z,3.67
2018-06-17T16:21:25.745Z,3.30
2018-06-17T16:23:31.431Z,2.10
2018-06-17T16:25:35.941Z,1.77
2018-06-17T16:27:40.403Z,3.17
2018-06-17T16:29:45.734Z,2.00
2018-06-17T16:31:50.271Z,2.37
2018-06-17T16:33:54.798Z,5.20
2018-06-17T16:35:59.300Z,3.90
2018-06-17T16:38:03.765Z,1.75
2018-06-17T16:40:09.161Z,4.63
2018-06-17T16:42:13.643Z,1.20
2018-06-17T16:44:18.079Z,1.63
2018-06-17T16:46:22.569Z,2.67
2018-06-17T16:48:27.041Z,2.20
2018-06-17T16:50:31.545Z,2.47
2018-06-17T16:52:41.307Z,3.37
2018-06-17T16:54:50.985Z,1.85
2018-06-17T16:57:00.701Z,2.80
2018-06-17T16:59:12.278Z,3.10
2018-06-17T17:01:17.330Z,3.27
2018-06-17T17:03:21.739Z,4.95
2018-06-17T17:05:26.213Z,0.93
2018-06-17T17:07:30.720Z,2.62
2018-06-17T17:09:35.187Z,2.80
2018-06-17T17:11:40.558Z,1.62
2018-06-17T17:13:46.089Z,3.63
2018-06-17T17:15:50.543Z,1.55
2018-06-17T17:17:55.088Z,3.57
2018-06-17T17:19:59.567Z,4.37
2018-06-17T17:22:04.013Z,3.47
2018-06-17T17:24:08.446Z,1.57
2018-06-17T17:26:12.904Z,1.93
2018-06-17T17:28:17.027Z,3.25
2018-06-17T17:30:21.478Z,3.87
2018-06-17T17:32:31.347Z,4.73
2018-06-17T17:34:41.561Z,2.20
2018-06-17T17:36:51.571Z,2.13
2018-06-17T17:39:01.252Z,2.62
2018-06-17T17:41:06.863Z,1.77
2018-06-17T17:43:11.336Z,2.23
2018-06-17T17:45:16.690Z,3.33
2018-06-17T17:47:22.466Z,2.83
2018-06-17T17:49:26.910Z,4.87
2018-06-17T17:51:31.372Z,2.33
2018-06-17T17:53:35.857Z,1.87
2018-06-17T17:55:40.315Z,1.57
2018-06-17T17:57:44.788Z,2.73
2018-06-17T17:59:49.213Z,2.13
2018-06-17T18:01:55.787Z,1.50
2018-06-17T18:04:03.120Z,3.77
2018-06-17T18:06:07.651Z,4.00
2018-06-17T18:08:12.352Z,4.37
2018-06-17T18:10:16.873Z,2.87
2018-06-17T18:12:25.118Z,2.15
2018-06-17T18:14:30.281Z,5.80
2018-06-17T18:16:34.815Z,5.08
2018-06-17T18:18:39.422Z,4.37
2018-06-17T18:20:44.969Z,3.00
2018-06-17T18:22:50.074Z,4.30
2018-06-17T18:25:00.344Z,3.33
2018-06-17T18:27:12.439Z,2.67
2018-06-17T18:29:22.946Z,2.72
2018-06-17T18:31:27.926Z,2.67
2018-06-17T18:33:38.844Z,2.55
2018-06-17T18:35:51.055Z,5.33
2018-06-17T18:37:58.326Z,4.12
2018-06-17T18:40:02.908Z,3.20
2018-06-17T18:42:08.438Z,3.55
2018-06-17T18:44:13.997Z,4.47
2018-06-17T18:46:19.247Z,3.35
2018-06-17T18:48:23.805Z,5.78
2018-06-17T18:50:28.641Z,3.40
2018-06-17T18:52:33.050Z,2.93
2018-06-17T18:54:37.595Z,2.62
2018-06-17T18:56:42.280Z,2.05
2018-06-17T18:58:47.824Z,4.87
2018-06-17T19:00:52.837Z,2.30
2018-06-17T19:02:57.871Z,2.50
2018-06-17T19:05:02.567Z,1.90
2018-06-17T19:07:07.910Z,2.98
2018-06-17T19:09:17.807Z,3.70
2018-06-17T19:11:27.781Z,2.40
2018-06-17T19:13:37.625Z,1.90
2018-06-17T19:15:47.271Z,2.93
2018-06-17T19:17:57.435Z,3.10
2018-06-17T19:20:01.973Z,6.87
2018-06-17T19:22:07.206Z,3.03
2018-06-17T19:24:12.277Z,3.17
2018-06-17T19:26:17.463Z,4.60
2018-06-17T19:28:23.772Z,3.17
2018-06-17T19:30:28.338Z,3.53
2018-06-17T19:32:33.025Z,4.77
2018-06-17T19:34:37.839Z,4.00
2018-06-17T19:36:42.407Z,3.70
2018-06-17T19:38:48.359Z,3.03
2018-06-17T19:40:52.927Z,5.60
2018-06-17T19:42:57.795Z,4.65
2018-06-17T19:45:02.604Z,4.73
2018-06-17T19:47:08.471Z,5.23
2018-06-17T19:49:14.005Z,5.63
2018-06-17T19:51:23.930Z,3.70
2018-06-17T19:53:33.796Z,4.17
2018-06-17T19:55:43.118Z,6.08
2018-06-17T19:57:54.025Z,3.57
2018-06-17T20:00:03.832Z,3.37
2018-06-17T20:02:09.061Z,3.97
2018-06-17T20:04:13.606Z,2.52
2018-06-17T20:06:18.231Z,1.47
2018-06-17T20:08:22.607Z,3.13
2018-06-17T20:10:28.410Z,2.73
2018-06-17T20:12:32.968Z,3.37
2018-06-17T20:14:37.501Z,2.00
2018-06-17T20:16:42.072Z,2.70
2018-06-17T20:18:47.810Z,2.77
2018-06-17T20:21:09.143Z,3.62
2018-06-17T20:23:31.903Z,1.77
2018-06-17T20:25:36.983Z,1.40
2018-06-17T20:27:41.959Z,3.87
2018-06-17T20:29:46.851Z,6.30
2018-06-17T20:31:56.937Z,2.33
2018-06-17T20:34:06.905Z,4.30
2018-06-17T20:37:16.034Z,3.13
2018-06-17T20:39:25.927Z,1.87
2018-06-17T20:41:35.648Z,3.90
2018-06-17T20:43:46.831Z,7.00
2018-06-17T20:45:51.515Z,3.40
2018-06-17T20:47:56.163Z,1.93
2018-06-17T20:50:00.943Z,1.67
2018-06-17T20:52:05.861Z,2.83
2018-06-17T20:54:10.476Z,4.37
2018-06-17T20:56:15.501Z,4.30
2018-06-17T20:58:20.144Z,2.62
2018-06-17T21:00:24.998Z,3.70
2018-06-17T21:02:29.648Z,1.77
2018-06-17T21:04:35.326Z,4.80
2018-06-17T21:06:39.884Z,3.17
2018-06-17T21:08:44.459Z,5.65
2018-06-17T21:10:49.048Z,4.90
2018-06-17T21:12:53.679Z,4.40
2018-06-17T21:14:58.280Z,4.92
2018-06-17T21:17:02.824Z,3.33
2018-06-17T21:19:12.573Z,7.20
2018-06-17T21:21:22.440Z,4.03
2018-06-17T21:25:40.077Z,4.70
2018-06-17T21:27:45.623Z,2.15
2018-06-17T21:29:50.217Z,2.93
2018-06-17T21:31:54.765Z,2.70
2018-06-17T21:33:59.275Z,2.70
2018-06-17T21:36:03.930Z,4.90
2018-06-17T21:38:08.969Z,2.47
2018-06-17T21:40:13.642Z,3.17
2018-06-17T21:42:18.193Z,5.17
2018-06-17T21:44:22.764Z,3.25
2018-06-17T21:46:27.300Z,5.00
2018-06-17T21:48:33.940Z,4.87
2018-06-17T21:52:42.091Z,2.67
2018-06-17T21:54:46.534Z,6.10
2018-06-17T21:56:50.920Z,4.20
2018-06-17T21:58:55.285Z,4.30
2018-06-17T22:00:59.883Z,3.08
2018-06-17T22:03:05.363Z,2.25
2018-06-17T22:05:10.558Z,3.63
2018-06-17T22:07:16.663Z,4.00
2018-06-17T22:09:26.208Z,2.60
2018-06-17T22:11:35.870Z,2.20
2018-06-17T22:13:45.412Z,1.70
2018-06-17T22:15:54.925Z,2.67
2018-06-17T22:17:59.315Z,1.47
2018-06-17T22:20:03.778Z,4.83
2018-06-17T22:22:09.458Z,1.50
2018-06-17T22:24:13.844Z,3.97
2018-06-17T22:26:17.952Z,3.58
2018-06-17T22:28:22.340Z,2.07
2018-06-17T22:30:26.813Z,3.47
2018-06-17T22:32:31.201Z,3.80
2018-06-17T22:34:35.602Z,3.77
2018-06-17T22:36:40.017Z,2.35
2018-06-17T22:38:44.439Z,3.53
2018-06-17T22:40:49.446Z,3.67
2018-06-17T22:42:53.845Z,5.00
2018-06-17T22:44:58.413Z,3.87
2018-06-17T22:47:02.843Z,2.23
2018-06-17T22:49:07.250Z,3.40
2018-06-17T22:51:11.690Z,3.47
2018-06-17T22:53:32.918Z,3.40
2018-06-17T22:55:37.327Z,3.00
2018-06-17T22:57:47.026Z,3.27
2018-06-17T22:59:56.619Z,2.13
2018-06-17T23:02:06.407Z,2.67
2018-06-17T23:04:16.124Z,3.30
2018-06-17T23:06:25.897Z,3.30
2018-06-17T23:08:38.119Z,1.83
2018-06-17T23:10:49.720Z,2.53
2018-06-17T23:12:55.742Z,1.72
2018-06-17T23:15:02.355Z,2.52
2018-06-17T23:17:06.775Z,2.70
2018-06-17T23:19:11.179Z,3.80
2018-06-17T23:21:15.569Z,3.53
2018-06-17T23:23:20.053Z,3.63
2018-06-17T23:25:24.450Z,2.83
2018-06-17T23:27:30.060Z,2.93
2018-06-17T23:29:34.475Z,4.63
2018-06-17T23:31:38.963Z,2.77
2018-06-17T23:33:43.392Z,3.15
2018-06-17T23:35:47.940Z,2.92
2018-06-17T23:37:52.442Z,1.90
2018-06-17T23:39:56.845Z,3.50
2018-06-17T23:42:01.987Z,4.85
2018-06-17T23:44:06.394Z,5.33
2018-06-17T23:46:16.011Z,4.37
2018-06-17T23:48:25.522Z,2.45
2018-06-17T23:50:35.369Z,3.85
2018-06-17T23:52:45.154Z,2.58
2018-06-17T23:54:55.794Z,5.28
2018-06-17T23:57:00.262Z,1.17
2018-06-17T23:59:04.649Z,3.58
